Decoded Metar for LYBT (BELGRADE BATAJNICA in SERBIA) (IATA:N/A) | Meteo·Mobile Aviation Weather
aviador You're here:

LYBT Decoded Metar

BELGRADE BATAJNICA in SERBIA
Report Time2019-10-21 00:00:00
UTC Time2019-10-21 00:12:08
Flight Rules mvfr MVFR
Wind060° at 01 kt
W.Decomp.*RWY 12: 0.4 kt HW 0.9 kt LCW
Visibility5000 m
Phenomena:Mist
Clouds:N/A
CeilingNone
Temp09°C (ISA -5)
Dew Point09°C (100% RH)
AAT8.4°C
QNH1020 hPa
Density Alt-476 ft
Elevation262 ft
Report Wrong Elevation
Raw Report
METAR LYBT 210000Z 06001KT 5000 BR NSC 09/09 Q1020 NOSIG=

Extra information for LYBT:More info

Metar Taf Metar & Taf Last 4 Metars F.Rules Stats Wind Profile Meteogram Temp Stats Airport Information Weather charts Add Link Nearby VenuesMetar ALERT Operation Metar Decoded Social comments